Peawanuck Airport
CYPO : now visible

Aeroporto :











RITROVATECI SU...

 
LOGIN :

Iscrizione | Disclaimer

   EN    FR    IT 

 









Sommario :    VFR   VFR Marginale   IFR   IFR Intensivo   IFR Molto Intensivo
Visibilità : 
Base nubi : 
>= 8 km
>= 3000ft
5 / 8 km
1000 / 3000 ft
1500m / 5 km
500 / 1000 ft
800 / 1500m
200 / 500 ft
< 800m
< 200 ft
Simboli :   Temporali  Nebbia  Neve Forte  Precipitazioni Forti  Vento > 20 kt






- Altitudine del aeroporto : 173 ft
- Codice IATA : YPO


CYPO - Peawanuck

ULTIMO METAR :
  • 182001Z AUTO 03006KT 360V070 5SM -SN OVC038 M18/M21 A3024 RMK SLP250

METARs OBSOLETI :
  • 181900Z AUTO 04004KT 360V080 9SM -SN BKN026 M18/M21 A3025 RMK SLP254
  • 181857Z AUTO 04004KT 360V060 6SM -SN BKN026 M18/M21 A3025 RMK SLP254
  • 181839Z AUTO 04005KT 5SM -SN BKN034 OVC046 M18/M21 A3026 RMK SLP256
  • 181819Z AUTO 04007KT 6SM -SN OVC030 M19/M22 A3026 RMK SLP257
  • 181806Z AUTO 04005KT 360V070 3SM -SN OVC026 M19/M22 A3026 RMK SLP257
  • 181739Z AUTO 04004KT 350V090 1SM -SN OVC024 M19/M22 A3027 RMK SLP262

TAF N/A



MetMap, La meteo Aeronautica in un colpo d'occhio ! - Copyright ORBIFLY Dicembre 2007 - Disclaimer

ORBIFLY MET'MAP TEAM :

Programmazione e sviluppo : Alexandra Zaïnal
Concezione : Baudouin d'Aumeries
Aiuto per la programmazione : Marc-Olivier Méhu
Supporto tecnico e logistico : Manuel Goepfert
Aiuto per la traduzione : Arnaldo La Scala

Contatto : metmap@orbifly.com




FONTI E CREDITI :

   NOAA       Earth
Advisory